createdAt,value
2022-11-02T00:00:19.014Z,0
2022-11-02T00:01:19.332Z,0
2022-11-02T00:02:19.052Z,0
2022-11-02T00:03:19.260Z,0
2022-11-02T00:04:19.041Z,0
2022-11-02T00:05:19.241Z,0
2022-11-02T00:06:18.996Z,0
2022-11-02T00:07:19.003Z,0
2022-11-02T00:08:19.008Z,0
2022-11-02T00:09:19.027Z,0
2022-11-02T00:10:18.995Z,0
2022-11-02T00:11:19.008Z,0
2022-11-02T00:12:19.018Z,0
2022-11-02T00:13:19.070Z,0
2022-11-02T00:14:19.371Z,0
2022-11-02T00:15:19.002Z,0
2022-11-02T00:16:19.006Z,0
2022-11-02T00:17:19.015Z,0
2022-11-02T00:18:19.014Z,0
2022-11-02T00:19:19.055Z,0
2022-11-02T00:20:19.022Z,0
2022-11-02T00:21:19.017Z,0
2022-11-02T00:22:19.015Z,0
2022-11-02T00:23:19.015Z,0
2022-11-02T00:24:19.059Z,0
2022-11-02T00:25:19.033Z,0
2022-11-02T00:26:19.005Z,0
2022-11-02T00:27:18.997Z,0
2022-11-02T00:28:19.017Z,0
2022-11-02T00:29:19.036Z,0
2022-11-02T00:30:19.005Z,0
2022-11-02T00:31:18.998Z,0
2022-11-02T00:32:19.008Z,0
2022-11-02T00:33:19.013Z,0
2022-11-02T00:34:19.036Z,0
2022-11-02T00:35:19.001Z,0
2022-11-02T00:36:19.008Z,0
2022-11-02T00:37:19.021Z,0
2022-11-02T00:38:19.115Z,0
2022-11-02T00:39:19.033Z,0
2022-11-02T00:40:19.005Z,0
2022-11-02T00:41:18.997Z,0
2022-11-02T00:42:19.018Z,0
2022-11-02T00:43:19.008Z,0
2022-11-02T00:44:19.032Z,0
2022-11-02T00:45:19.006Z,0
2022-11-02T00:46:19.001Z,0
2022-11-02T00:47:19.014Z,0
2022-11-02T00:48:19.018Z,0
2022-11-02T00:49:19.020Z,0
2022-11-02T00:50:19.011Z,0
2022-11-02T00:51:19.004Z,0
2022-11-02T00:52:18.990Z,0
2022-11-02T00:53:19.007Z,0
2022-11-02T00:54:19.001Z,0
2022-11-02T00:55:19.004Z,0
2022-11-02T00:56:18.993Z,0
2022-11-02T00:57:19.005Z,0
2022-11-02T00:58:19.011Z,0
2022-11-02T00:59:19.026Z,0
2022-11-02T01:00:19.020Z,0
2022-11-02T01:01:19.169Z,0
2022-11-02T01:02:19.092Z,0
2022-11-02T01:03:19.009Z,0
2022-11-02T01:04:19.009Z,0
2022-11-02T01:05:19.015Z,0
2022-11-02T01:06:19.012Z,0
2022-11-02T01:07:19.006Z,0
2022-11-02T01:08:18.990Z,0
2022-11-02T01:09:19.024Z,0
2022-11-02T01:10:18.999Z,0
2022-11-02T01:11:19.010Z,0
2022-11-02T01:12:19.013Z,0
2022-11-02T01:13:19.020Z,0
2022-11-02T01:14:18.993Z,0
2022-11-02T01:15:19.009Z,0
2022-11-02T01:16:19.001Z,0
2022-11-02T01:17:19.008Z,0
2022-11-02T01:18:19.016Z,0
2022-11-02T01:19:19.004Z,0
2022-11-02T01:20:18.991Z,0
2022-11-02T01:21:19.008Z,0
2022-11-02T01:22:19.002Z,0
2022-11-02T01:23:19.029Z,0
2022-11-02T01:24:19.037Z,0
2022-11-02T01:25:18.997Z,0
2022-11-02T01:26:18.998Z,0
2022-11-02T01:27:18.997Z,0
2022-11-02T01:28:18.984Z,0
2022-11-02T01:29:19.008Z,0
2022-11-02T01:30:19.013Z,0
2022-11-02T01:31:19.111Z,0
2022-11-02T01:32:20.300Z,0
2022-11-02T01:33:19.552Z,0
2022-11-02T01:34:19.642Z,0
2022-11-02T01:35:19.116Z,0
2022-11-02T01:36:19.692Z,0
2022-11-02T01:37:18.999Z,0
2022-11-02T01:38:19.009Z,0
2022-11-02T01:39:19.024Z,0
2022-11-02T01:40:19.004Z,0
2022-11-02T01:41:19.014Z,0
2022-11-02T01:42:19.015Z,0
2022-11-02T01:43:18.995Z,0
2022-11-02T01:44:19.029Z,0
2022-11-02T01:45:19.029Z,0
2022-11-02T01:46:19.009Z,0
2022-11-02T01:47:19.203Z,0
2022-11-02T01:48:19.005Z,0
2022-11-02T01:49:19.032Z,0
2022-11-02T01:50:19.009Z,0
2022-11-02T01:51:19.005Z,0
2022-11-02T01:52:19.007Z,0
2022-11-02T01:53:19.015Z,0
2022-11-02T01:54:19.047Z,0
2022-11-02T01:55:18.993Z,0
2022-11-02T01:56:19.075Z,0
2022-11-02T01:57:19.008Z,0
2022-11-02T01:58:19.039Z,0
2022-11-02T01:59:19.323Z,0
2022-11-02T02:00:19.007Z,0
2022-11-02T02:01:19.097Z,0
2022-11-02T02:02:19.161Z,0
2022-11-02T02:03:19.002Z,0
2022-11-02T02:04:19.033Z,0
2022-11-02T02:05:18.999Z,0
2022-11-02T02:06:19.014Z,0
2022-11-02T02:07:19.004Z,0
2022-11-02T02:08:19.011Z,0
2022-11-02T02:09:19.048Z,0
2022-11-02T02:10:19.017Z,0
2022-11-02T02:11:19.137Z,0
2022-11-02T02:12:19.001Z,0
2022-11-02T02:13:19.004Z,0
2022-11-02T02:14:19.033Z,0
2022-11-02T02:15:19.000Z,0
2022-11-02T02:16:19.009Z,0
2022-11-02T02:17:19.010Z,0
2022-11-02T02:18:19.013Z,0
2022-11-02T02:19:19.032Z,0
2022-11-02T02:20:19.013Z,0
2022-11-02T02:21:19.004Z,0
2022-11-02T02:22:19.059Z,0
2022-11-02T02:23:19.050Z,0
2022-11-02T02:24:19.292Z,0
2022-11-02T02:25:19.004Z,0
2022-11-02T02:26:19.000Z,0
2022-11-02T02:27:19.013Z,0
2022-11-02T02:28:19.007Z,0
2022-11-02T02:29:19.021Z,0
2022-11-02T02:30:18.998Z,0
2022-11-02T02:31:19.016Z,0
2022-11-02T02:32:19.008Z,0
2022-11-02T02:33:19.032Z,0
2022-11-02T02:34:19.001Z,0
2022-11-02T02:35:19.005Z,0
2022-11-02T02:36:19.011Z,0
2022-11-02T02:37:19.008Z,0
2022-11-02T02:38:18.998Z,0
2022-11-02T02:39:19.008Z,0
2022-11-02T02:40:19.037Z,0
2022-11-02T02:41:19.016Z,0
2022-11-02T02:42:19.006Z,0
2022-11-02T02:43:19.023Z,0
2022-11-02T02:44:19.008Z,0
2022-11-02T02:45:19.012Z,0
2022-11-02T02:46:19.008Z,0
2022-11-02T02:47:19.018Z,0
2022-11-02T02:48:19.000Z,0
2022-11-02T02:49:19.000Z,0
2022-11-02T02:50:19.013Z,0
2022-11-02T02:51:19.013Z,0
2022-11-02T02:52:19.005Z,0
2022-11-02T02:53:19.019Z,0
2022-11-02T02:54:19.010Z,0
2022-11-02T02:55:19.051Z,0
2022-11-02T02:56:19.303Z,0
2022-11-02T02:57:19.611Z,0
2022-11-02T02:58:19.636Z,0
2022-11-02T02:59:18.983Z,0
2022-11-02T03:00:19.312Z,0
2022-11-02T03:01:19.115Z,0
2022-11-02T03:02:19.113Z,0
2022-11-02T03:03:18.995Z,0
2022-11-02T03:04:19.021Z,0
2022-11-02T03:05:19.009Z,0
2022-11-02T03:06:19.014Z,0
2022-11-02T03:07:19.010Z,0
2022-11-02T03:08:19.005Z,0
2022-11-02T03:09:19.005Z,0
2022-11-02T03:10:19.432Z,0
2022-11-02T03:11:19.731Z,0
2022-11-02T03:12:19.091Z,0
2022-11-02T03:13:19.285Z,0
2022-11-02T03:14:19.215Z,0
2022-11-02T03:15:19.018Z,0
2022-11-02T03:16:19.298Z,0
2022-11-02T03:17:19.210Z,0
2022-11-02T03:18:19.333Z,0
2022-11-02T03:19:19.026Z,0
2022-11-02T03:20:18.995Z,0
2022-11-02T03:21:19.016Z,0
2022-11-02T03:22:19.032Z,0
2022-11-02T03:23:19.109Z,0
2022-11-02T03:24:19.016Z,0
2022-11-02T03:25:19.006Z,0
2022-11-02T03:26:19.010Z,0
2022-11-02T03:27:19.270Z,0
2022-11-02T03:28:19.001Z,0
2022-11-02T03:29:19.006Z,0
2022-11-02T03:30:19.010Z,0
2022-11-02T03:31:19.013Z,0
2022-11-02T03:32:19.016Z,0
2022-11-02T03:33:19.016Z,0
2022-11-02T03:34:19.019Z,0
2022-11-02T03:35:19.012Z,0
2022-11-02T03:36:19.001Z,0
2022-11-02T03:37:19.006Z,0
2022-11-02T03:38:19.003Z,0
2022-11-02T03:39:19.003Z,0
2022-11-02T03:40:19.009Z,0
2022-11-02T03:41:19.021Z,0
2022-11-02T03:42:19.012Z,0
2022-11-02T03:43:19.002Z,0
2022-11-02T03:44:19.013Z,0
2022-11-02T03:45:19.022Z,0
2022-11-02T03:46:19.027Z,0
2022-11-02T03:47:18.998Z,0
2022-11-02T03:48:19.002Z,0
2022-11-02T03:49:19.002Z,0
2022-11-02T03:50:19.028Z,0
2022-11-02T03:51:19.020Z,0
2022-11-02T03:52:19.016Z,0
2022-11-02T03:53:18.997Z,0
2022-11-02T03:54:19.005Z,0
2022-11-02T03:55:18.987Z,0
2022-11-02T03:56:19.015Z,0
2022-11-02T03:57:19.006Z,0
2022-11-02T03:58:19.007Z,0
2022-11-02T03:59:19.020Z,0
2022-11-02T04:00:19.019Z,0
2022-11-02T04:01:19.039Z,0
2022-11-02T04:02:19.070Z,0
2022-11-02T04:03:19.004Z,0
2022-11-02T04:04:18.994Z,0
2022-11-02T04:05:19.000Z,0
2022-11-02T04:06:19.006Z,0
2022-11-02T04:07:19.015Z,0
2022-11-02T04:08:19.014Z,0
2022-11-02T04:09:19.151Z,0
2022-11-02T04:10:18.988Z,0
2022-11-02T04:11:19.008Z,0
2022-11-02T04:12:19.008Z,0
2022-11-02T04:13:19.010Z,0
2022-11-02T04:14:19.009Z,0
2022-11-02T04:15:19.014Z,0
2022-11-02T04:16:22.334Z,0
2022-11-02T04:17:19.071Z,0
2022-11-02T04:18:19.009Z,0
2022-11-02T04:19:19.031Z,0
2022-11-02T04:20:19.012Z,0
2022-11-02T04:21:19.133Z,0
2022-11-02T04:22:18.995Z,0
2022-11-02T04:23:19.020Z,0
2022-11-02T04:24:19.015Z,0
2022-11-02T04:25:19.156Z,0
2022-11-02T04:26:19.008Z,0
2022-11-02T04:27:21.061Z,0
2022-11-02T04:28:19.000Z,0
2022-11-02T04:29:19.017Z,0
2022-11-02T04:30:19.010Z,0
2022-11-02T04:31:19.032Z,0
2022-11-02T04:32:19.037Z,0
2022-11-02T04:33:18.997Z,0
2022-11-02T04:34:18.994Z,0
2022-11-02T04:35:18.996Z,0
2022-11-02T04:36:19.012Z,0
2022-11-02T04:37:19.015Z,0
2022-11-02T04:38:18.998Z,0
2022-11-02T04:39:19.000Z,0
2022-11-02T04:40:19.000Z,0
2022-11-02T04:41:19.007Z,0
2022-11-02T04:42:19.011Z,0
2022-11-02T04:43:18.999Z,0
2022-11-02T04:44:19.553Z,0
2022-11-02T04:45:18.985Z,0
2022-11-02T04:46:20.089Z,0
2022-11-02T04:47:19.422Z,0
2022-11-02T04:48:19.578Z,0
2022-11-02T04:49:19.011Z,0
2022-11-02T04:50:19.108Z,0
2022-11-02T04:51:19.324Z,0
2022-11-02T04:52:19.003Z,0
2022-11-02T04:53:19.006Z,0
2022-11-02T04:54:19.028Z,0
2022-11-02T04:55:19.029Z,0
2022-11-02T04:56:19.011Z,0
2022-11-02T04:57:19.002Z,0
2022-11-02T04:58:18.999Z,0
2022-11-02T04:59:19.028Z,0
2022-11-02T05:00:19.010Z,0
2022-11-02T05:01:19.031Z,0
2022-11-02T05:02:19.155Z,0
2022-11-02T05:03:19.001Z,0
2022-11-02T05:04:19.053Z,0
2022-11-02T05:05:19.032Z,0
2022-11-02T05:06:19.014Z,0
2022-11-02T05:07:19.040Z,0
2022-11-02T05:08:19.006Z,0
2022-11-02T05:09:19.030Z,0
2022-11-02T05:10:19.002Z,0
2022-11-02T05:11:19.012Z,0
2022-11-02T05:12:19.035Z,0
2022-11-02T05:13:19.016Z,0
2022-11-02T05:14:19.018Z,0
2022-11-02T05:15:19.008Z,0
2022-11-02T05:16:19.004Z,0
2022-11-02T05:17:19.028Z,0
2022-11-02T05:18:19.369Z,0
2022-11-02T05:19:19.220Z,0
2022-11-02T05:20:19.051Z,0
2022-11-02T05:21:19.356Z,0
2022-11-02T05:22:19.638Z,0
2022-11-02T05:23:19.098Z,0
2022-11-02T05:24:19.300Z,0
2022-11-02T05:25:19.253Z,0
2022-11-02T05:26:19.006Z,0
2022-11-02T05:27:19.273Z,0
2022-11-02T05:28:19.568Z,0
2022-11-02T05:29:19.794Z,0
2022-11-02T05:30:19.003Z,0
2022-11-02T05:31:18.982Z,0
2022-11-02T05:32:19.001Z,0
2022-11-02T05:33:18.982Z,0
2022-11-02T05:34:19.018Z,0
2022-11-02T05:35:19.017Z,0
2022-11-02T05:36:19.014Z,0
2022-11-02T05:37:19.121Z,0
2022-11-02T05:38:19.295Z,0
2022-11-02T05:39:19.032Z,0
2022-11-02T05:40:19.002Z,0
2022-11-02T05:41:19.036Z,0
2022-11-02T05:42:19.241Z,0.23
2022-11-02T05:43:18.994Z,0.23
2022-11-02T05:44:19.044Z,0.23
2022-11-02T05:45:20.566Z,0.46
2022-11-02T05:46:19.005Z,0.46
2022-11-02T05:47:19.002Z,0.69
2022-11-02T05:48:19.011Z,0.69
2022-11-02T05:49:19.025Z,0.92
2022-11-02T05:50:18.990Z,1.15
2022-11-02T05:51:19.001Z,1.15
2022-11-02T05:52:19.022Z,1.38
2022-11-02T05:53:19.024Z,1.61
2022-11-02T05:54:19.033Z,2.07
2022-11-02T05:55:19.006Z,2.76
2022-11-02T05:56:23.833Z,3.22
2022-11-02T05:57:18.999Z,3.91
2022-11-02T05:58:19.006Z,4.6
2022-11-02T05:59:19.012Z,5.52
2022-11-02T06:00:18.996Z,6.67
2022-11-02T06:01:19.057Z,7.82
2022-11-02T06:02:20.762Z,9.2
2022-11-02T06:03:19.015Z,39.17
2022-11-02T06:04:19.075Z,12.5
2022-11-02T06:05:19.091Z,15.83
2022-11-02T06:06:19.002Z,19.17
2022-11-02T06:07:18.995Z,22.5
2022-11-02T06:08:19.008Z,27.5
2022-11-02T06:09:19.002Z,32.5
2022-11-02T06:10:19.013Z,36.67
2022-11-02T06:11:19.001Z,42.5
2022-11-02T06:12:19.002Z,47.5
2022-11-02T06:13:19.006Z,55
2022-11-02T06:14:19.022Z,61.67
2022-11-02T06:15:19.051Z,69.17
2022-11-02T06:16:22.879Z,80
2022-11-02T06:17:19.015Z,97.5
2022-11-02T06:18:19.021Z,111.67
2022-11-02T06:19:19.006Z,123.33
2022-11-02T06:20:19.014Z,135
2022-11-02T06:21:19.032Z,135
2022-11-02T06:22:19.001Z,153.33
2022-11-02T06:23:18.997Z,160
2022-11-02T06:24:19.281Z,178.33
2022-11-02T06:25:19.015Z,188.33
2022-11-02T06:26:19.153Z,190.83
2022-11-02T06:27:19.338Z,201.67
2022-11-02T06:28:19.017Z,225
2022-11-02T06:29:19.022Z,249.17
2022-11-02T06:30:19.000Z,276.67
2022-11-02T06:31:19.011Z,324.17
2022-11-02T06:32:19.041Z,335.83
2022-11-02T06:33:19.291Z,355
2022-11-02T06:34:19.043Z,364.17
2022-11-02T06:35:19.017Z,378.33
2022-11-02T06:36:19.010Z,388.33
2022-11-02T06:37:19.031Z,391.67
2022-11-02T06:38:19.013Z,392.5
2022-11-02T06:39:19.021Z,403.33
2022-11-02T06:40:20.302Z,435
2022-11-02T06:41:19.113Z,450
2022-11-02T06:42:19.304Z,493.33
2022-11-02T06:43:19.327Z,511.67
2022-11-02T06:44:19.005Z,532.5
2022-11-02T06:45:19.014Z,552.5
2022-11-02T06:46:19.003Z,575
2022-11-02T06:47:19.020Z,613.33
2022-11-02T06:48:18.996Z,667.5
2022-11-02T06:49:19.015Z,705
2022-11-02T06:50:19.004Z,739.17
2022-11-02T06:51:19.104Z,765
2022-11-02T06:52:19.000Z,821.67
2022-11-02T06:53:19.001Z,898.33
2022-11-02T06:54:19.011Z,896.67
2022-11-02T06:55:18.988Z,898.33
2022-11-02T06:56:19.004Z,884.17
2022-11-02T06:57:19.004Z,907.5
2022-11-02T06:58:18.996Z,964.17
2022-11-02T06:59:19.017Z,1056.67
2022-11-02T07:00:20.788Z,1097.5
2022-11-02T07:01:19.106Z,1077.5
2022-11-02T07:02:19.057Z,1107.5
2022-11-02T07:03:19.020Z,1128.33
2022-11-02T07:04:19.035Z,1142.5
2022-11-02T07:05:18.996Z,1180.83
2022-11-02T07:06:19.005Z,1181.67
2022-11-02T07:07:18.993Z,1144.17
2022-11-02T07:08:19.000Z,1196.67
2022-11-02T07:09:19.002Z,1161.67
2022-11-02T07:10:19.005Z,1255.83
2022-11-02T07:11:19.011Z,1266.67
2022-11-02T07:12:22.845Z,1194.17
2022-11-02T07:13:19.031Z,1314.17
2022-11-02T07:14:19.007Z,1330
2022-11-02T07:15:19.033Z,1386.67
2022-11-02T07:16:19.013Z,1400
2022-11-02T07:17:18.996Z,1420.83
2022-11-02T07:18:19.019Z,1476.67
2022-11-02T07:19:19.004Z,1582.5
2022-11-02T07:20:19.010Z,1809.17
2022-11-02T07:22:19.008Z,2920.83
2022-11-02T07:23:18.994Z,3750
2022-11-02T07:24:19.004Z,3837.5
2022-11-02T07:25:19.014Z,4118.33
2022-11-02T07:26:19.022Z,3352.5
2022-11-02T07:27:18.986Z,3025.83
2022-11-02T07:28:19.015Z,2624.17
2022-11-02T07:29:19.007Z,2722.5
2022-11-02T07:30:18.996Z,2942.5
2022-11-02T07:31:19.009Z,2816.67
2022-11-02T07:32:19.011Z,2391.67
2022-11-02T07:33:19.014Z,2580
2022-11-02T07:34:19.011Z,2976.67
2022-11-02T07:35:19.022Z,2629.17
2022-11-02T07:36:19.004Z,1865
2022-11-02T07:37:19.011Z,1553.33
2022-11-02T07:38:19.028Z,1805.83
2022-11-02T07:39:19.042Z,2032.5
2022-11-02T07:40:19.010Z,2279.17
2022-11-02T07:41:19.023Z,1902.5
2022-11-02T07:42:19.020Z,2040.83
2022-11-02T07:43:19.014Z,2640.83
2022-11-02T07:44:19.010Z,3085
2022-11-02T07:45:19.007Z,3143.33
2022-11-02T07:46:19.012Z,3039.17
2022-11-02T07:47:19.034Z,3138.33
2022-11-02T07:48:19.009Z,2755.83
2022-11-02T07:49:21.571Z,3002.5
2022-11-02T07:50:18.984Z,3075
2022-11-02T07:51:19.277Z,2668.33
2022-11-02T07:52:19.070Z,2074.17
2022-11-02T07:53:19.287Z,1781.67
2022-11-02T07:54:19.000Z,1912.5
2022-11-02T07:55:19.224Z,2401.67
2022-11-02T07:56:19.027Z,2832.5
2022-11-02T07:57:19.254Z,2850.83
2022-11-02T07:58:18.980Z,2982.5
2022-11-02T07:59:19.134Z,3868.33
2022-11-02T08:00:19.501Z,5093.33
2022-11-02T08:01:19.970Z,5531.67
2022-11-02T08:02:19.491Z,5220.83
2022-11-02T08:03:19.634Z,3261.67
2022-11-02T08:04:19.153Z,3125
2022-11-02T08:05:19.305Z,3567.5
2022-11-02T08:06:19.025Z,3059.17
2022-11-02T08:07:19.013Z,2899.17
2022-11-02T08:08:19.025Z,3309.17
2022-11-02T08:09:19.012Z,4381.67
2022-11-02T08:10:19.015Z,4226.67
2022-11-02T08:11:19.272Z,3825
2022-11-02T08:12:18.997Z,2905
2022-11-02T08:13:18.999Z,3350.83
2022-11-02T08:14:19.021Z,3377.5
2022-11-02T08:15:19.012Z,4548.33
2022-11-02T08:16:19.011Z,4611.67
2022-11-02T08:17:19.012Z,5280
2022-11-02T08:18:19.015Z,5017.5
2022-11-02T08:19:19.009Z,4123.33
2022-11-02T08:20:19.005Z,3454.17
2022-11-02T08:21:19.005Z,3620
2022-11-02T08:22:19.012Z,3065.83
2022-11-02T08:23:19.003Z,3548.33
2022-11-02T08:24:19.055Z,4206.67
2022-11-02T08:25:19.011Z,4325
2022-11-02T08:26:19.006Z,6566.67
2022-11-02T08:27:19.003Z,5294.17
2022-11-02T08:28:19.008Z,5706.67
2022-11-02T08:29:19.004Z,5905.83
2022-11-02T08:30:19.001Z,9740.83
2022-11-02T08:31:19.015Z,6661.67
2022-11-02T08:32:19.017Z,6031.67
2022-11-02T08:33:19.014Z,6372.5
2022-11-02T08:34:19.050Z,9162.5
2022-11-02T08:35:19.003Z,5891.67
2022-11-02T08:36:19.014Z,8335
2022-11-02T08:37:18.997Z,7248.33
2022-11-02T08:38:19.001Z,12960
2022-11-02T08:39:19.268Z,10850.83
2022-11-02T08:40:19.011Z,5550
2022-11-02T08:41:19.022Z,6090
2022-11-02T08:42:19.012Z,9627.5
2022-11-02T08:43:19.020Z,4762.5
2022-11-02T08:44:19.007Z,4290
2022-11-02T08:45:18.999Z,5080
2022-11-02T08:46:19.017Z,6240
2022-11-02T08:47:18.984Z,12264.17
2022-11-02T08:48:19.184Z,11872.5
2022-11-02T08:49:19.534Z,11499.17
2022-11-02T08:50:19.720Z,7096.67
2022-11-02T08:51:19.309Z,13183.33
2022-11-02T08:52:19.020Z,13218.33
2022-11-02T08:53:18.998Z,10787.5
2022-11-02T08:54:19.028Z,11457.5
2022-11-02T08:55:19.035Z,6537.5
2022-11-02T08:56:19.094Z,6450
2022-11-02T08:57:19.012Z,12942.5
2022-11-02T08:58:19.004Z,6968.33
2022-11-02T08:59:19.017Z,6935.83
2022-11-02T09:00:19.026Z,13305.83
2022-11-02T09:01:19.073Z,8409.17
2022-11-02T09:02:19.101Z,9820.83
2022-11-02T09:03:22.033Z,14004.17
2022-11-02T09:04:19.005Z,5824.17
2022-11-02T09:05:19.061Z,6145
2022-11-02T09:06:19.021Z,7925.83
2022-11-02T09:07:19.023Z,16077.5
2022-11-02T09:08:19.339Z,13777.5
2022-11-02T09:09:18.999Z,13694.17
2022-11-02T09:10:19.042Z,6881.67
2022-11-02T09:11:18.998Z,5959.17
2022-11-02T09:12:19.001Z,11355.83
2022-11-02T09:13:18.998Z,12680
2022-11-02T09:14:19.066Z,6177.5
2022-11-02T09:15:19.033Z,5845.83
2022-11-02T09:16:19.014Z,5250
2022-11-02T09:17:19.011Z,5961.67
2022-11-02T09:18:19.015Z,6085
2022-11-02T09:19:19.212Z,4649.17
2022-11-02T09:20:19.028Z,4492.5
2022-11-02T09:21:18.999Z,5244.17
2022-11-02T09:22:19.004Z,4914.17
2022-11-02T09:23:18.997Z,4873.33
2022-11-02T09:24:19.011Z,4351.67
2022-11-02T09:25:19.022Z,3844.17
2022-11-02T09:26:19.003Z,3384.17
2022-11-02T09:27:19.057Z,3656.67
2022-11-02T09:28:19.008Z,3241.67
2022-11-02T09:29:19.062Z,2905
2022-11-02T09:30:19.038Z,3125
2022-11-02T09:31:18.995Z,5104.17
2022-11-02T09:32:19.005Z,14956.67
2022-11-02T09:33:19.012Z,4925.83
2022-11-02T09:34:19.013Z,3775.83
2022-11-02T09:35:19.046Z,3542.5
2022-11-02T09:36:19.014Z,4213.33
2022-11-02T09:37:19.001Z,4103.33
2022-11-02T09:38:19.021Z,4365.83
2022-11-02T09:39:19.286Z,6814.17
2022-11-02T09:40:19.055Z,16234.17
2022-11-02T09:41:19.146Z,7218.33
2022-11-02T09:42:19.323Z,3555
2022-11-02T09:43:18.995Z,2868.33
2022-11-02T09:44:19.027Z,2659.17
2022-11-02T09:45:19.030Z,2600.83
2022-11-02T09:46:19.025Z,2560.83
2022-11-02T09:47:56.210Z,2749.17
2022-11-02T09:48:23.469Z,3014.17
2022-11-02T09:49:19.007Z,2955.83
2022-11-02T09:50:19.074Z,2850
2022-11-02T09:51:19.032Z,4788.33
2022-11-02T09:52:19.029Z,3100
2022-11-02T09:53:18.993Z,7674.17
2022-11-02T09:54:18.991Z,3166.67
2022-11-02T09:55:19.042Z,6029.17
2022-11-02T09:56:19.318Z,12770.83
2022-11-02T09:57:19.013Z,12796.67
2022-11-02T09:58:18.997Z,4205.83
2022-11-02T09:59:18.989Z,13020.83
2022-11-02T10:00:19.012Z,8803.33
2022-11-02T10:01:19.075Z,13150
2022-11-02T10:02:19.053Z,13375.83
2022-11-02T10:03:19.009Z,3776.67
2022-11-02T10:04:19.034Z,11883.33
2022-11-02T10:05:18.999Z,13162.5
2022-11-02T10:06:19.021Z,13082.5
2022-11-02T10:07:18.999Z,13129.17
2022-11-02T10:08:19.013Z,13079.17
2022-11-02T10:09:18.994Z,12925.83
2022-11-02T10:10:19.001Z,13123.33
2022-11-02T10:11:19.055Z,13088.33
2022-11-02T10:12:19.004Z,13306.67
2022-11-02T10:13:19.008Z,13352.5
2022-11-02T10:14:19.008Z,13304.17
2022-11-02T10:15:19.022Z,13400
2022-11-02T10:16:19.161Z,13421.67
2022-11-02T10:17:18.991Z,13443.33
2022-11-02T10:18:19.003Z,13421.67
2022-11-02T10:19:19.009Z,13326.67
2022-11-02T10:20:19.020Z,13360.83
2022-11-02T10:21:19.021Z,13893.33
2022-11-02T10:22:19.004Z,13655.83
2022-11-02T10:23:19.023Z,3877.5
2022-11-02T10:24:19.008Z,14679.17
2022-11-02T10:25:18.999Z,9641.67
2022-11-02T10:26:19.065Z,14268.33
2022-11-02T10:27:19.009Z,14324.17
2022-11-02T10:28:19.053Z,6101.67
2022-11-02T10:29:19.021Z,14091.67
2022-11-02T10:30:19.001Z,7539.17
2022-11-02T10:31:19.008Z,14180
2022-11-02T10:32:19.003Z,15676.67
2022-11-02T10:33:19.016Z,15361.67
2022-11-02T10:34:19.014Z,14438.33
2022-11-02T10:35:33.829Z,13955
2022-11-02T10:36:19.610Z,14453.33
2022-11-02T10:37:19.012Z,15546.67
2022-11-02T10:38:19.028Z,16176.67
2022-11-02T10:39:19.033Z,16452.5
2022-11-02T10:40:19.019Z,16101.67
2022-11-02T10:41:19.016Z,16341.67
2022-11-02T10:42:19.012Z,17935
2022-11-02T10:43:19.015Z,17674.17
2022-11-02T10:44:19.049Z,17012.5
2022-11-02T10:45:19.023Z,18105.83
2022-11-02T10:46:18.995Z,17060
2022-11-02T10:47:19.001Z,15890
2022-11-02T10:48:19.024Z,15733.33
2022-11-02T10:49:19.043Z,15007.5
2022-11-02T10:50:19.123Z,14957.5
2022-11-02T10:51:19.002Z,14380.83
2022-11-02T10:52:19.000Z,3795.83
2022-11-02T10:53:40.440Z,13785.83
2022-11-02T10:54:21.562Z,13813.33
2022-11-02T10:55:19.011Z,13973.33
2022-11-02T10:56:19.012Z,13220
2022-11-02T10:57:19.089Z,5490
2022-11-02T10:58:19.270Z,3510.83
2022-11-02T10:59:19.614Z,15200
2022-11-02T11:00:19.525Z,17296.67
2022-11-02T11:01:19.075Z,17693.33
2022-11-02T11:02:19.127Z,17083.33
2022-11-02T11:03:19.017Z,17476.67
2022-11-02T11:04:19.008Z,16943.33
2022-11-02T11:05:18.994Z,15498.33
2022-11-02T11:06:18.993Z,16416.67
2022-11-02T11:07:19.163Z,15296.67
2022-11-02T11:08:18.991Z,14247.5
2022-11-02T11:09:19.184Z,13928.33
2022-11-02T11:10:19.137Z,13670
2022-11-02T11:11:19.169Z,14733.33
2022-11-02T11:12:19.408Z,15107.5
2022-11-02T11:15:47.337Z,14688.33
2022-11-02T11:16:19.662Z,14823.33
2022-11-02T11:19:41.333Z,14071.67
2022-11-02T11:20:19.027Z,13500
2022-11-02T11:21:19.015Z,13259.17
2022-11-02T11:22:19.008Z,13195
2022-11-02T11:23:19.005Z,13045.83
2022-11-02T11:24:19.064Z,13114.17
2022-11-02T11:25:20.726Z,13163.33
2022-11-02T11:26:19.039Z,13121.67
2022-11-02T11:27:19.006Z,13028.33
2022-11-02T11:28:19.017Z,13013.33
2022-11-02T11:29:19.000Z,13033.33
2022-11-02T11:30:28.402Z,13142.5
2022-11-02T11:31:18.997Z,13158.33
2022-11-02T11:32:19.000Z,13010.83
2022-11-02T11:33:19.004Z,12999.17
2022-11-02T11:34:19.000Z,12925
2022-11-02T11:35:19.016Z,12895
2022-11-02T11:36:19.071Z,12934.17
2022-11-02T11:37:19.388Z,12958.33
2022-11-02T11:38:19.012Z,12938.33
2022-11-02T11:39:19.007Z,13030.83
2022-11-02T11:40:19.010Z,12933.33
2022-11-02T11:41:18.997Z,12325.83
2022-11-02T11:42:19.020Z,3510
2022-11-02T11:43:19.011Z,13020
2022-11-02T11:44:19.022Z,3976.67
2022-11-02T11:45:18.992Z,13080
2022-11-02T11:46:19.022Z,6172.5
2022-11-02T11:47:19.007Z,9960.83
2022-11-02T11:48:19.012Z,13094.17
2022-11-02T11:49:19.014Z,13017.5
2022-11-02T11:50:19.442Z,12925
2022-11-02T11:51:22.878Z,13172.5
2022-11-02T11:52:19.020Z,7028.33
2022-11-02T11:53:19.017Z,13354.17
2022-11-02T11:54:19.028Z,13236.67
2022-11-02T11:55:18.993Z,13077.5
2022-11-02T11:56:19.045Z,13316.67
2022-11-02T11:57:19.003Z,13450
2022-11-02T11:58:19.000Z,13638.33
2022-11-02T11:59:19.054Z,13615
2022-11-02T12:00:18.998Z,13745.83
2022-11-02T12:01:19.039Z,13452.5
2022-11-02T12:02:19.101Z,13622.5
2022-11-02T12:03:19.081Z,13709.17
2022-11-02T12:04:19.001Z,13903.33
2022-11-02T12:05:18.991Z,13888.33
2022-11-02T12:06:19.009Z,14055.83
2022-11-02T12:07:19.005Z,14055.83
2022-11-02T12:08:19.015Z,14004.17
2022-11-02T12:09:19.009Z,14155
2022-11-02T12:10:19.041Z,14465
2022-11-02T12:11:19.372Z,14706.67
2022-11-02T12:12:19.032Z,9326.67
2022-11-02T12:13:18.994Z,15131.67
2022-11-02T12:14:19.009Z,3224.17
2022-11-02T12:15:19.009Z,11413.33
2022-11-02T12:16:18.993Z,16381.67
2022-11-02T12:17:19.014Z,4079.17
2022-11-02T12:18:18.997Z,10458.33
2022-11-02T12:19:19.013Z,9935
2022-11-02T12:20:19.011Z,10010.83
2022-11-02T12:21:18.994Z,3045.83
2022-11-02T12:22:19.022Z,3188.33
2022-11-02T12:23:18.992Z,3487.5
2022-11-02T12:24:19.032Z,17562.5
2022-11-02T12:25:18.999Z,3310
2022-11-02T12:26:19.001Z,8480
2022-11-02T12:27:19.008Z,18234.17
2022-11-02T12:28:19.026Z,19690
2022-11-02T12:29:18.995Z,19572.5
2022-11-02T12:30:18.995Z,16860.83
2022-11-02T12:31:19.010Z,19620
2022-11-02T12:32:19.003Z,19925
2022-11-02T12:33:19.001Z,19359.17
2022-11-02T12:34:19.278Z,20068.33
2022-11-02T12:35:29.688Z,19645
2022-11-02T12:36:19.005Z,19969.17
2022-11-02T12:37:35.686Z,20072.5
2022-11-02T12:38:19.007Z,19745
2022-11-02T12:39:19.010Z,18065.83
2022-11-02T12:40:19.040Z,19240.83
2022-11-02T12:41:18.995Z,20140
2022-11-02T12:42:19.030Z,19839.17
2022-11-02T12:43:19.005Z,8583.33
2022-11-02T12:44:19.022Z,2888.33
2022-11-02T12:45:19.147Z,7249.17
2022-11-02T12:46:19.006Z,19324.17
2022-11-02T12:47:19.011Z,14921.67
2022-11-02T12:48:19.020Z,8227.5
2022-11-02T12:49:19.011Z,4535.83
2022-11-02T12:50:19.008Z,5333.33
2022-11-02T12:51:19.095Z,4120
2022-11-02T12:52:19.469Z,4173.33
2022-11-02T12:53:19.698Z,4610
2022-11-02T12:54:19.358Z,2750
2022-11-02T12:55:19.021Z,2491.67
2022-11-02T12:56:19.320Z,2468.33
2022-11-02T12:57:19.775Z,3758.33
2022-11-02T12:58:18.982Z,3038.33
2022-11-02T12:59:19.182Z,2726.67
2022-11-02T13:00:19.011Z,2808.33
2022-11-02T13:01:19.217Z,14675
2022-11-02T13:02:19.275Z,15627.5
2022-11-02T13:03:19.003Z,4831.67
2022-11-02T13:04:19.279Z,4887.5
2022-11-02T13:05:19.013Z,4084.17
2022-11-02T13:06:19.025Z,3960.83
2022-11-02T13:07:19.015Z,4189.17
2022-11-02T13:08:19.185Z,7337.5
2022-11-02T13:09:18.996Z,11779.17
2022-11-02T13:10:19.028Z,9580.83
2022-11-02T13:11:18.996Z,3061.67
2022-11-02T13:12:19.024Z,4375.83
2022-11-02T13:13:18.986Z,4170
2022-11-02T13:14:19.007Z,4233.33
2022-11-02T13:15:19.020Z,3878.33
2022-11-02T13:16:19.006Z,3290
2022-11-02T13:17:19.003Z,3436.67
2022-11-02T13:18:19.009Z,3018.33
2022-11-02T13:19:19.025Z,2718.33
2022-11-02T13:20:19.006Z,2607.5
2022-11-02T13:21:19.010Z,3520